Time;durP1;ratioP1;P1;durP2;ratioP2;P2;SDS_P1;SDS_P2;PMS_P1;PMS_P2;Temp;Humidity;BMP_temperature;BMP_pressure;BME280_temperature;BME280_humidity;BME280_pressure;Samples;Min_cycle;Max_cycle;Signal;HPM_P1;HPM_P2
2024/01/17 00:00:55;;;;;;;25.08;18.13;;;;;;;-0.40;54.38;93697.75;5113504;28;20023;-67
2024/01/17 00:03:20;;;;;;;30.00;18.70;;;;;;;-0.14;54.45;93730.16;5113554;28;20027;-67
2024/01/17 00:05:46;;;;;;;32.15;18.52;;;;;;;-0.11;54.57;93735.66;5114127;28;20187;-68
2024/01/17 00:08:11;;;;;;;29.08;18.80;;;;;;;-0.06;54.41;93729.69;5113718;28;20081;-67
2024/01/17 00:10:37;;;;;;;30.13;18.23;;;;;;;0.01;53.96;93734.72;5113421;28;20035;-67
2024/01/17 00:13:02;;;;;;;27.45;19.13;;;;;;;0.14;53.64;93757.84;5113029;28;20043;-67
2024/01/17 00:15:28;;;;;;;32.38;21.45;;;;;;;-0.13;54.38;93766.47;5113431;28;20058;-67
2024/01/17 00:17:53;;;;;;;51.92;29.77;;;;;;;-0.16;53.91;93729.59;5113232;28;20019;-67
2024/01/17 00:20:19;;;;;;;34.50;22.58;;;;;;;0.02;54.00;93763.22;5112724;28;20507;-67
2024/01/17 00:22:45;;;;;;;39.17;22.75;;;;;;;-0.24;54.59;93751.72;5113105;28;20031;-67
2024/01/17 00:25:10;;;;;;;36.85;23.63;;;;;;;-0.32;54.79;93752.19;5112733;28;20046;-67
2024/01/17 00:27:36;;;;;;;33.42;19.80;;;;;;;-0.16;55.09;93764.38;5113312;28;20036;-67
2024/01/17 00:30:06;;;;;;;29.98;20.20;;;;;;;-0.31;54.87;93756.38;5095234;28;20023;-67
2024/01/17 00:32:31;;;;;;;27.20;18.80;;;;;;;-0.19;54.75;93774.53;5112871;28;20024;-67
2024/01/17 00:34:57;;;;;;;29.88;18.83;;;;;;;-0.33;54.88;93740.16;5112490;28;20407;-67
2024/01/17 00:37:22;;;;;;;25.65;19.52;;;;;;;-0.32;54.82;93746.97;5112521;28;20028;-67
2024/01/17 00:39:48;;;;;;;28.88;19.23;;;;;;;-0.25;54.63;93758.00;5112540;28;20027;-67
2024/01/17 00:42:14;;;;;;;29.40;19.67;;;;;;;-0.16;54.06;93761.75;5113442;28;20016;-67
2024/01/17 00:44:41;;;;;;;33.50;21.70;;;;;;;-0.36;54.71;93755.53;5112764;28;20119;-67
2024/01/17 00:47:06;;;;;;;36.25;20.95;;;;;;;-0.32;54.81;93752.19;5112653;28;20077;-67
2024/01/17 00:49:32;;;;;;;35.10;22.60;;;;;;;-0.45;54.88;93744.75;5112627;28;20024;-67
2024/01/17 00:51:57;;;;;;;33.17;22.58;;;;;;;-0.41;54.79;93742.44;5093234;28;20152;-67
2024/01/17 00:54:23;;;;;;;35.28;24.10;;;;;;;-0.59;54.88;93717.44;5112504;28;20023;-67
2024/01/17 00:56:48;;;;;;;44.03;24.85;;;;;;;-0.39;54.98;93735.94;5113067;28;20051;-67
2024/01/17 00:59:14;;;;;;;40.47;24.02;;;;;;;-0.28;54.71;93737.59;5112294;28;20035;-67
2024/01/17 01:01:39;;;;;;;37.42;23.50;;;;;;;-0.37;54.60;93712.16;5093913;28;20036;-67
2024/01/17 01:04:04;;;;;;;34.13;23.17;;;;;;;-0.13;54.36;93740.34;5112126;28;20559;-67
2024/01/17 01:06:30;;;;;;;34.28;22.00;;;;;;;-0.30;54.01;93716.16;5112240;28;20023;-67
2024/01/17 01:08:55;;;;;;;34.30;21.42;;;;;;;-0.23;54.11;93726.38;5112275;28;20020;-67
2024/01/17 01:11:20;;;;;;;36.08;22.67;;;;;;;-0.18;54.13;93737.69;5111873;28;20500;-68
2024/01/17 01:13:46;;;;;;;34.05;22.58;;;;;;;-0.13;54.11;93732.50;5112150;28;20100;-67
2024/01/17 01:16:11;;;;;;;33.25;21.67;;;;;;;-0.07;53.62;93739.34;5111489;28;20023;-67
2024/01/17 01:18:37;;;;;;;33.22;23.15;;;;;;;-0.22;54.34;93734.00;5112019;28;20042;-67
2024/01/17 01:21:02;;;;;;;35.83;23.27;;;;;;;-0.29;54.42;93727.41;5112643;28;20031;-67
2024/01/17 01:23:28;;;;;;;35.50;20.75;;;;;;;-0.30;54.67;93724.00;5111358;28;20028;-67
2024/01/17 01:25:53;;;;;;;33.90;21.50;;;;;;;-0.28;54.49;93708.03;5111589;28;20059;-67
2024/01/17 01:28:19;;;;;;;36.53;21.52;;;;;;;-0.27;54.59;93733.16;5111961;28;20035;-67
2024/01/17 01:30:45;;;;;;;45.53;29.73;;;;;;;-0.42;54.85;93720.72;5111701;28;20301;-67
2024/01/17 01:33:10;;;;;;;62.85;35.10;;;;;;;-0.32;54.80;93725.25;5112228;28;20480;-67
2024/01/17 01:35:35;;;;;;;48.17;28.88;;;;;;;-0.52;55.74;93750.16;5111714;28;20568;-68
2024/01/17 01:38:01;;;;;;;51.15;29.70;;;;;;;-0.46;55.84;93753.63;5111307;28;20032;-67
2024/01/17 01:40:26;;;;;;;51.72;32.95;;;;;;;-0.66;56.21;93751.56;5111514;28;20040;-67
2024/01/17 01:42:53;;;;;;;46.20;28.15;;;;;;;-0.63;56.53;93755.53;5111671;28;20369;-67
2024/01/17 01:45:18;;;;;;;48.95;27.98;;;;;;;-0.59;56.24;93756.63;5111662;28;20439;-67
2024/01/17 01:47:44;;;;;;;48.83;29.98;;;;;;;-0.49;55.85;93741.06;5111795;28;20051;-67
2024/01/17 01:50:11;;;;;;;44.25;28.48;;;;;;;-0.45;55.31;93742.13;5111790;28;20020;-67
2024/01/17 01:52:38;;;;;;;43.65;26.42;;;;;;;-0.34;55.19;93754.28;5111566;28;20043;-67
2024/01/17 01:55:05;;;;;;;44.00;28.80;;;;;;;-0.46;55.58;93737.94;5111299;28;20069;-67
2024/01/17 01:57:31;;;;;;;47.72;28.40;;;;;;;-0.25;55.19;93754.63;5111102;28;20020;-67
2024/01/17 01:59:57;;;;;;;44.83;27.27;;;;;;;-0.34;54.69;93730.75;5111543;28;20502;-67
2024/01/17 02:02:24;;;;;;;48.70;28.73;;;;;;;-0.41;54.59;93732.75;5111070;28;20111;-67
2024/01/17 02:04:52;;;;;;;45.67;27.05;;;;;;;-0.50;55.46;93726.41;5111430;28;20035;-67
2024/01/17 02:07:21;;;;;;;43.92;25.95;;;;;;;-0.48;55.57;93732.16;5111340;28;20077;-67
2024/01/17 02:09:48;;;;;;;43.17;27.17;;;;;;;-0.49;55.79;93725.38;5111403;28;20030;-67
2024/01/17 02:12:14;;;;;;;42.40;27.35;;;;;;;-0.32;55.77;93733.09;5111672;28;20488;-66
2024/01/17 02:14:41;;;;;;;36.63;24.33;;;;;;;-0.21;55.56;93726.94;5110971;28;20032;-67
2024/01/17 02:17:08;;;;;;;35.58;24.05;;;;;;;-0.25;54.81;93716.19;5111238;28;20042;-67
2024/01/17 02:19:33;;;;;;;40.60;24.10;;;;;;;-0.43;54.97;93713.91;5111132;28;20445;-68
2024/01/17 02:21:59;;;;;;;34.92;23.92;;;;;;;-0.45;55.35;93720.44;5111055;28;20121;-67
2024/01/17 02:24:24;;;;;;;37.22;23.60;;;;;;;-0.43;55.08;93718.38;5111161;28;20027;-67
2024/01/17 02:26:50;;;;;;;37.95;23.05;;;;;;;-0.36;54.85;93716.34;5111177;28;20123;-67
2024/01/17 02:29:16;;;;;;;31.23;19.52;;;;;;;-0.37;54.52;93712.94;5111004;28;20412;-67
2024/01/17 02:31:43;;;;;;;25.05;16.38;;;;;;;-0.42;54.51;93710.28;5111116;28;20412;-67
2024/01/17 02:34:10;;;;;;;18.13;13.60;;;;;;;-0.30;54.34;93713.53;5111359;28;20112;-67
2024/01/17 02:36:35;;;;;;;18.02;11.50;;;;;;;-0.32;54.32;93704.34;5111067;28;20404;-67
2024/01/17 02:39:00;;;;;;;26.10;15.60;;;;;;;-0.33;54.40;93706.19;5111471;28;20023;-67
2024/01/17 02:41:26;;;;;;;28.20;18.85;;;;;;;-0.22;54.67;93710.47;5111368;28;20032;-67
2024/01/17 02:43:51;;;;;;;27.55;19.05;;;;;;;-0.27;54.94;93701.78;5115024;28;20036;-67
2024/01/17 02:46:16;;;;;;;24.75;18.27;;;;;;;-0.33;55.60;93702.78;5115104;28;20087;-67
2024/01/17 02:48:42;;;;;;;24.63;16.15;;;;;;;-0.37;55.49;93702.50;5115108;28;20058;-67
2024/01/17 02:51:08;;;;;;;21.35;15.10;;;;;;;-0.22;55.67;93710.47;5115509;28;20024;-67
2024/01/17 02:53:33;;;;;;;16.90;11.57;;;;;;;-0.15;55.46;93707.66;5114987;28;20518;-67
2024/01/17 02:55:58;;;;;;;14.82;11.68;;;;;;;-0.19;55.41;93694.28;5114443;28;20035;-67
2024/01/17 02:58:24;;;;;;;19.30;11.63;;;;;;;-0.12;55.55;93704.53;5114752;28;20036;-67
2024/01/17 03:00:49;;;;;;;18.85;10.98;;;;;;;-0.17;55.60;93700.06;5096009;28;20508;-67
2024/01/17 03:03:15;;;;;;;18.80;12.80;;;;;;;-0.06;55.35;93708.78;5115298;28;20039;-67
2024/01/17 03:05:40;;;;;;;18.42;11.85;;;;;;;-0.11;55.71;93719.97;5114702;28;20052;-67
2024/01/17 03:08:06;;;;;;;21.70;13.60;;;;;;;-0.18;56.03;93716.78;5114366;28;20042;-67
2024/01/17 03:10:32;;;;;;;20.05;13.43;;;;;;;-0.09;56.12;93717.88;5114209;28;20030;-67
2024/01/17 03:12:57;;;;;;;21.77;13.60;;;;;;;-0.28;56.06;93695.78;5114120;28;20036;-67
2024/01/17 03:15:23;;;;;;;24.73;13.50;;;;;;;-0.13;55.94;93708.19;5114155;28;20357;-67
2024/01/17 03:17:49;;;;;;;20.92;14.55;;;;;;;-0.35;56.24;93697.81;5114899;28;20519;-67
2024/01/17 03:20:15;;;;;;;24.42;14.90;;;;;;;-0.21;56.36;93706.81;5114552;28;20114;-67
2024/01/17 03:22:40;;;;;;;23.17;13.77;;;;;;;-0.03;56.18;93712.69;5114491;28;20430;-67
2024/01/17 03:25:07;;;;;;;23.10;14.95;;;;;;;-0.07;55.79;93715.03;5114079;28;20073;-67
2024/01/17 03:27:32;;;;;;;23.83;16.05;;;;;;;-0.14;56.40;93702.16;5114230;28;20099;-67
2024/01/17 03:29:58;;;;;;;26.00;16.40;;;;;;;-0.20;56.38;93716.25;5114404;28;20539;-67
2024/01/17 03:32:23;;;;;;;28.55;17.27;;;;;;;-0.31;57.03;93692.88;5113987;28;20032;-67
2024/01/17 03:34:51;;;;;;;24.85;16.75;;;;;;;-0.39;57.14;93685.50;5113877;28;20526;-67
2024/01/17 03:37:17;;;;;;;23.45;17.30;;;;;;;-0.51;57.87;93711.75;5114121;28;20569;-67
2024/01/17 03:39:45;;;;;;;28.55;16.92;;;;;;;-0.25;57.18;93710.97;5113893;28;20024;-67
2024/01/17 03:42:17;;;;;;;24.80;18.55;;;;;;;-0.39;57.27;93685.50;5114156;28;20054;-67
2024/01/17 03:44:43;;;;;;;22.77;16.85;;;;;;;-0.26;56.90;93692.91;5114151;28;20040;-67
2024/01/17 03:47:09;;;;;;;23.45;16.70;;;;;;;-0.24;56.65;93701.31;5113957;28;20512;-67
2024/01/17 03:49:35;;;;;;;24.85;17.08;;;;;;;-0.23;55.99;93690.59;5113959;28;20085;-67
2024/01/17 03:52:00;;;;;;;29.52;18.52;;;;;;;-0.64;56.93;93686.84;5113795;28;20027;-67
2024/01/17 03:54:26;;;;;;;28.45;18.88;;;;;;;-0.33;56.04;93708.78;5112344;28;20058;-67
2024/01/17 03:56:51;;;;;;;32.30;20.83;;;;;;;-0.33;55.80;93728.91;5114109;28;20476;-67
2024/01/17 03:59:16;;;;;;;39.47;22.27;;;;;;;-0.41;56.06;93732.75;5114016;28;20125;-67
2024/01/17 04:01:43;;;;;;;32.92;20.92;;;;;;;-0.38;55.78;93724.41;5113606;28;20126;-66
2024/01/17 04:04:09;;;;;;;29.65;20.33;;;;;;;-0.34;56.29;93737.81;5113689;28;20028;-67
2024/01/17 04:06:34;;;;;;;31.75;21.35;;;;;;;-0.35;55.72;93737.00;5094856;28;20042;-67
2024/01/17 04:09:00;;;;;;;35.10;21.13;;;;;;;-0.16;55.58;93748.69;5113890;28;20019;-67
2024/01/17 04:11:25;;;;;;;34.40;22.13;;;;;;;-0.21;55.38;93746.03;5113330;28;20047;-67
2024/01/17 04:13:51;;;;;;;35.22;22.65;;;;;;;-0.27;55.44;93744.41;5113349;28;20493;-67
2024/01/17 04:16:17;;;;;;;35.42;23.50;;;;;;;-0.25;55.34;93737.09;5113420;28;20024;-68
2024/01/17 04:18:43;;;;;;;35.00;22.55;;;;;;;-0.24;55.13;93727.44;5113480;28;20030;-67
2024/01/17 04:21:08;;;;;;;39.80;25.30;;;;;;;-0.18;54.90;93722.00;5113610;28;20020;-67
2024/01/17 04:23:34;;;;;;;38.55;24.77;;;;;;;-0.17;55.11;93736.66;5113238;28;20027;-67
2024/01/17 04:25:59;;;;;;;42.67;26.30;;;;;;;-0.25;55.06;93725.88;5112601;28;20074;-67
2024/01/17 04:28:25;;;;;;;37.17;24.60;;;;;;;-0.36;55.18;93718.97;5113052;28;20035;-67
2024/01/17 04:30:50;;;;;;;36.95;24.25;;;;;;;-0.35;55.28;93731.78;5113081;28;20092;-67
2024/01/17 04:33:16;;;;;;;43.83;27.17;;;;;;;-0.23;54.96;93735.03;5113783;28;20030;-67
2024/01/17 04:35:41;;;;;;;34.97;23.70;;;;;;;-0.33;54.63;93723.69;5112986;28;20036;-67
2024/01/17 04:38:07;;;;;;;38.22;23.27;;;;;;;-0.35;54.68;93750.06;5112806;28;20500;-67
2024/01/17 04:40:32;;;;;;;39.70;26.08;;;;;;;-0.32;54.88;93736.50;5112621;28;20042;-67
2024/01/17 04:42:57;;;;;;;44.28;26.52;;;;;;;-0.42;54.72;93746.84;5113101;28;20118;-67
2024/01/17 04:45:23;;;;;;;42.92;26.15;;;;;;;-0.39;55.11;93735.13;5112663;28;20027;-67
2024/01/17 04:47:48;;;;;;;41.47;24.20;;;;;;;-0.45;55.24;93744.75;5113102;28;20107;-67
2024/01/17 04:50:14;;;;;;;43.58;24.80;;;;;;;-0.38;55.23;93758.38;5112685;28;20445;-67
2024/01/17 04:52:39;;;;;;;35.85;24.10;;;;;;;-0.54;54.90;93730.56;5112306;28;20197;-67
2024/01/17 04:55:05;;;;;;;41.10;25.15;;;;;;;-0.71;55.21;93714.16;5112479;28;20050;-67
2024/01/17 04:57:31;;;;;;;50.80;31.25;;;;;;;-0.81;55.65;93714.06;5093757;28;20031;-67
2024/01/17 04:59:56;;;;;;;47.97;30.77;;;;;;;-0.75;55.23;93762.69;5112116;28;20023;-67
2024/01/17 05:02:22;;;;;;;49.35;32.03;;;;;;;-0.80;55.72;93778.31;5112586;28;20040;-67
2024/01/17 05:04:47;;;;;;;51.80;33.35;;;;;;;-0.82;56.34;93809.09;5111477;28;20043;-67
2024/01/17 05:07:12;;;;;;;53.13;33.65;;;;;;;-1.03;56.76;93782.75;5111621;28;20412;-67
2024/01/17 05:09:38;;;;;;;53.00;30.85;;;;;;;-1.02;56.92;93792.13;5092963;28;20040;-67
2024/01/17 05:12:04;;;;;;;47.40;27.65;;;;;;;-0.74;56.86;93791.19;5112625;28;20016;-67
2024/01/17 05:14:29;;;;;;;42.08;28.00;;;;;;;-1.20;57.41;93768.94;5110703;28;20031;-67
2024/01/17 05:16:55;;;;;;;45.28;28.10;;;;;;;-1.48;59.41;93753.41;5112048;28;20126;-67
2024/01/17 05:19:20;;;;;;;37.17;23.38;;;;;;;-1.07;58.39;93771.19;5111994;28;20051;-67
2024/01/17 05:21:46;;;;;;;34.63;22.80;;;;;;;-0.92;57.84;93767.22;5111856;28;20130;-67
2024/01/17 05:24:11;;;;;;;32.70;21.33;;;;;;;-1.11;58.10;93745.81;5112515;28;20023;-67
2024/01/17 05:26:37;;;;;;;34.50;22.52;;;;;;;-0.81;58.28;93755.84;5111563;28;20539;-67
2024/01/17 05:29:02;;;;;;;34.80;22.02;;;;;;;-0.65;57.59;93753.16;5111610;28;20482;-67
2024/01/17 05:31:27;;;;;;;32.20;21.20;;;;;;;-0.78;57.81;93747.53;5111264;28;20091;-67
2024/01/17 05:33:53;;;;;;;47.70;24.17;;;;;;;-0.68;57.31;93753.63;5093302;28;20027;-67
2024/01/17 05:36:18;;;;;;;43.90;28.00;;;;;;;-0.61;57.68;93762.09;5111703;28;20361;-67
2024/01/17 05:38:44;;;;;;;51.50;33.33;;;;;;;-0.46;57.40;93760.66;5112165;28;20016;-67
2024/01/17 05:41:09;;;;;;;43.30;30.23;;;;;;;-0.42;57.18;93749.47;5110031;28;20028;-67
2024/01/17 05:43:34;;;;;;;47.95;32.72;;;;;;;-0.45;57.55;93728.28;5110280;28;20035;-67
2024/01/17 05:46:00;;;;;;;48.63;32.22;;;;;;;-0.87;58.65;93747.16;5110146;28;20062;-67
2024/01/17 05:48:25;;;;;;;50.38;31.95;;;;;;;-0.86;59.34;93742.72;5110219;28;20031;-67
2024/01/17 05:50:51;;;;;;;52.10;30.80;;;;;;;-0.83;58.17;93740.44;5111117;28;20380;-67
2024/01/17 05:53:16;;;;;;;49.83;33.28;;;;;;;-0.48;58.12;93783.66;5110610;28;20035;-67
2024/01/17 05:55:42;;;;;;;44.75;30.80;;;;;;;-0.37;57.31;93799.16;5110745;28;20031;-67
2024/01/17 05:58:11;;;;;;;51.60;34.08;;;;;;;-0.26;57.91;93779.97;5110994;28;20032;-67
2024/01/17 06:00:37;;;;;;;45.10;30.45;;;;;;;-0.21;57.48;93764.31;5111267;28;20560;-66
2024/01/17 06:03:04;;;;;;;45.78;30.25;;;;;;;-0.04;57.18;93781.75;5111787;28;20112;-67
2024/01/17 06:05:30;;;;;;;52.50;31.23;;;;;;;-0.32;57.61;93731.28;5111287;28;20111;-67
2024/01/17 06:07:55;;;;;;;50.25;30.65;;;;;;;-0.55;58.29;93736.81;5111077;28;20536;-67
2024/01/17 06:10:21;;;;;;;45.90;30.27;;;;;;;-0.36;58.55;93745.09;5110911;28;20034;-67
2024/01/17 06:12:46;;;;;;;48.22;29.80;;;;;;;-0.37;58.13;93744.28;5111025;28;20019;-67
2024/01/17 06:15:12;;;;;;;50.80;32.53;;;;;;;-0.30;58.20;93747.50;5111844;28;20069;-67
2024/01/17 06:17:38;;;;;;;63.28;37.75;;;;;;;-0.15;57.61;93757.31;5110521;28;20046;-67
2024/01/17 06:20:04;;;;;;;60.22;35.92;;;;;;;-0.27;57.75;93774.97;5111067;28;20039;-67
2024/01/17 06:22:29;;;;;;;53.58;34.33;;;;;;;-0.18;57.76;93753.38;5111195;28;20035;-67
2024/01/17 06:24:55;;;;;;;52.78;33.33;;;;;;;-0.35;57.94;93752.69;5110914;28;20035;-67
2024/01/17 06:27:22;;;;;;;55.20;35.95;;;;;;;-0.13;57.46;93752.63;5111311;28;20476;-67
2024/01/17 06:29:47;;;;;;;53.47;34.78;;;;;;;-0.27;57.17;93754.84;5111758;28;20110;-67
2024/01/17 06:32:13;;;;;;;52.38;33.55;;;;;;;-0.27;57.43;93780.97;5111353;28;20115;-67
2024/01/17 06:34:39;;;;;;;52.50;35.45;;;;;;;-0.33;57.44;93755.81;5111136;28;20031;-67
2024/01/17 06:37:04;;;;;;;45.08;32.63;;;;;;;-0.30;57.80;93763.19;5110718;28;20019;-67
2024/01/17 06:39:31;;;;;;;48.20;31.80;;;;;;;-0.11;57.06;93769.66;5110384;28;20648;-67
2024/01/17 06:41:57;;;;;;;50.28;33.17;;;;;;;-0.11;57.27;93774.88;5110588;28;20019;-67
2024/01/17 06:44:23;;;;;;;57.45;35.08;;;;;;;-0.30;57.33;93749.34;5110826;28;20539;-67
2024/01/17 06:46:48;;;;;;;50.45;32.95;;;;;;;-0.10;57.39;93797.38;5111108;28;20122;-67
2024/01/17 06:49:14;;;;;;;50.78;33.33;;;;;;;-0.11;57.55;93782.72;5110925;28;20020;-67
2024/01/17 06:51:39;;;;;;;57.03;34.80;;;;;;;-0.01;57.45;93789.06;5110331;28;20027;-67
2024/01/17 06:54:04;;;;;;;51.47;34.30;;;;;;;-0.14;57.89;93770.13;5093099;28;20107;-67
2024/01/17 06:56:32;;;;;;;52.55;35.10;;;;;;;-0.18;57.84;93758.59;5110763;28;20096;-67
2024/01/17 06:58:58;;;;;;;55.28;34.65;;;;;;;-0.09;58.12;93757.09;5110795;28;20035;-67
2024/01/17 07:01:23;;;;;;;55.95;38.08;;;;;;;-0.01;58.09;93742.00;5110789;28;20115;-67
2024/01/17 07:03:48;;;;;;;59.30;38.75;;;;;;;-0.45;58.45;93710.78;5110620;28;20028;-68
2024/01/17 07:06:14;;;;;;;71.78;41.85;;;;;;;-0.29;59.15;93771.81;5110003;28;20047;-67
2024/01/17 07:08:40;;;;;;;70.43;44.42;;;;;;;-0.52;59.02;93723.25;5109797;28;20085;-67
2024/01/17 07:11:05;;;;;;;80.38;48.55;;;;;;;-0.25;58.97;93768.47;5109720;28;20072;-67
2024/01/17 07:13:31;;;;;;;77.50;48.53;;;;;;;-0.22;58.66;93765.34;5110131;28;20032;-67
2024/01/17 07:15:56;;;;;;;68.75;45.85;;;;;;;-0.12;58.73;93752.38;5110246;28;20081;-67
2024/01/17 07:18:22;;;;;;;74.70;47.95;;;;;;;0.05;58.65;93746.25;5110274;28;20095;-67
2024/01/17 07:20:49;;;;;;;74.30;47.25;;;;;;;0.32;58.22;93762.66;5110481;28;20019;-68
2024/01/17 07:23:14;;;;;;;68.70;44.30;;;;;;;0.44;57.87;93765.91;5092140;28;20174;-67
2024/01/17 07:25:40;;;;;;;69.53;44.22;;;;;;;0.28;57.91;93748.53;5110816;28;20437;-67
2024/01/17 07:28:05;;;;;;;74.25;47.42;;;;;;;-0.19;59.44;93772.69;5112454;28;20035;-67
2024/01/17 07:30:31;;;;;;;68.03;45.90;;;;;;;0.09;58.80;93781.31;5114116;28;20460;-67
2024/01/17 07:32:56;;;;;;;71.05;48.30;;;;;;;0.30;58.34;93791.69;5114773;28;20464;-67
2024/01/17 07:35:22;;;;;;;71.60;45.13;;;;;;;0.36;58.21;93801.16;5113907;28;20119;-67
2024/01/17 07:37:48;;;;;;;75.05;45.85;;;;;;;0.37;58.23;93783.63;5113735;28;20042;-67
2024/01/17 07:40:14;;;;;;;65.22;41.53;;;;;;;0.45;58.29;93806.72;5113933;28;20035;-67
2024/01/17 07:42:40;;;;;;;61.95;41.08;;;;;;;0.56;57.69;93784.03;5113927;28;20039;-67
2024/01/17 07:45:06;;;;;;;60.67;40.13;;;;;;;0.37;57.64;93796.72;5114118;28;20015;-68
2024/01/17 07:47:31;;;;;;;56.47;37.63;;;;;;;0.28;58.24;93790.38;5113409;28;20382;-67
2024/01/17 07:49:59;;;;;;;53.35;36.38;;;;;;;0.43;57.80;93792.31;5113397;28;20028;-67
2024/01/17 07:52:25;;;;;;;54.63;36.15;;;;;;;0.64;57.49;93781.72;5113405;28;20023;-67
2024/01/17 07:54:50;;;;;;;47.30;32.38;;;;;;;0.64;56.91;93762.66;5095268;28;20518;-67
2024/01/17 07:57:16;;;;;;;56.78;37.58;;;;;;;0.33;57.31;93775.50;5113474;28;20426;-67
2024/01/17 07:59:41;;;;;;;51.60;34.22;;;;;;;0.48;57.39;93764.38;5113682;28;20027;-67
2024/01/17 08:02:07;;;;;;;60.10;40.25;;;;;;;0.17;58.64;93765.97;5113221;28;20079;-68
2024/01/17 08:04:33;;;;;;;58.58;38.25;;;;;;;0.42;57.64;93778.44;5095125;28;20043;-68
2024/01/17 08:06:58;;;;;;;55.28;37.85;;;;;;;0.28;57.71;93778.09;5094846;28;20106;-67
2024/01/17 08:09:26;;;;;;;54.80;34.58;;;;;;;0.54;58.01;93792.16;5113306;28;20076;-68
2024/01/17 08:11:53;;;;;;;62.10;38.60;;;;;;;0.85;57.18;93787.88;5114179;28;20136;-67
2024/01/17 08:14:19;;;;;;;66.55;39.28;;;;;;;0.81;56.74;93789.44;5094844;28;20035;-67
2024/01/17 08:16:46;;;;;;;73.40;43.10;;;;;;;1.03;57.06;93784.06;5113048;28;20036;-68
2024/01/17 08:19:11;;;;;;;77.25;45.80;;;;;;;1.19;56.25;93789.13;5113306;28;20059;-67
2024/01/17 08:21:37;;;;;;;70.82;45.75;;;;;;;1.05;56.93;93772.28;5112812;28;20532;-68
2024/01/17 08:24:02;;;;;;;68.40;44.80;;;;;;;1.09;57.30;93791.69;5113284;28;20020;-67
2024/01/17 08:26:28;;;;;;;65.38;40.45;;;;;;;1.02;56.54;93785.13;5112678;28;20048;-68
2024/01/17 08:28:54;;;;;;;63.05;40.35;;;;;;;0.95;56.79;93792.41;5112874;28;20023;-67
2024/01/17 08:31:20;;;;;;;60.13;40.15;;;;;;;0.65;58.21;93799.03;5112953;28;20104;-67
2024/01/17 08:33:45;;;;;;;59.30;37.78;;;;;;;0.33;58.93;93787.81;5112684;28;20031;-67
2024/01/17 08:36:12;;;;;;;61.58;38.25;;;;;;;0.52;59.11;93783.75;5113265;28;20479;-67
2024/01/17 08:38:37;;;;;;;56.80;36.92;;;;;;;0.86;57.61;93772.97;5112374;28;20024;-67
2024/01/17 08:41:03;;;;;;;62.25;38.95;;;;;;;0.64;58.44;93786.19;5111987;28;20040;-67
2024/01/17 08:43:28;;;;;;;55.90;37.03;;;;;;;0.55;58.33;93801.56;5112266;28;20032;-68
2024/01/17 08:45:54;;;;;;;56.08;36.95;;;;;;;0.54;58.59;93801.84;5112357;28;20036;-68
2024/01/17 08:48:19;;;;;;;63.53;38.97;;;;;;;0.46;58.83;93800.44;5112449;28;20503;-67
2024/01/17 08:50:45;;;;;;;92.05;46.83;;;;;;;0.50;58.37;93793.66;5112937;28;20136;-68
2024/01/17 08:53:10;;;;;;;62.00;39.47;;;;;;;0.89;58.37;93814.38;5112466;28;20603;-67
2024/01/17 08:55:36;;;;;;;57.83;40.97;;;;;;;0.98;56.95;93786.66;5112086;28;20038;-67
2024/01/17 08:58:01;;;;;;;68.60;43.80;;;;;;;0.88;57.17;93794.47;5112409;28;20484;-67
2024/01/17 09:00:27;;;;;;;71.57;50.63;;;;;;;0.67;57.89;93786.47;5112188;28;20214;-67
2024/01/17 09:02:52;;;;;;;65.05;39.47;;;;;;;-0.28;60.27;93768.94;5112546;28;20469;-67
2024/01/17 09:05:18;;;;;;;61.55;42.08;;;;;;;0.02;60.87;93801.66;5111959;28;20090;-67
2024/01/17 09:07:45;;;;;;;64.05;41.80;;;;;;;0.23;59.64;93806.81;5093810;28;20461;-67
2024/01/17 09:10:13;;;;;;;56.55;33.17;;;;;;;0.29;58.57;93760.56;5111966;28;20106;-67
2024/01/17 09:12:38;;;;;;;57.55;35.15;;;;;;;0.56;59.30;93784.81;5112058;28;20028;-68
2024/01/17 09:15:04;;;;;;;46.22;31.23;;;;;;;0.96;57.65;93773.03;5112462;28;20027;-67
2024/01/17 09:17:30;;;;;;;47.33;31.77;;;;;;;0.71;57.65;93760.59;5111913;28;20032;-68
2024/01/17 09:19:55;;;;;;;52.83;32.38;;;;;;;0.66;58.74;93760.56;5111731;28;20038;-67
2024/01/17 09:22:21;;;;;;;58.92;35.90;;;;;;;0.25;59.33;93735.97;5111995;28;20058;-67
2024/01/17 09:24:47;;;;;;;56.15;34.13;;;;;;;0.50;59.31;93736.09;5111944;28;20031;-68
2024/01/17 09:27:12;;;;;;;58.22;38.40;;;;;;;0.24;59.87;93729.94;5112207;28;20058;-67
2024/01/17 09:29:38;;;;;;;64.00;41.50;;;;;;;0.06;60.50;93742.56;5111830;28;20032;-67
2024/01/17 09:32:04;;;;;;;53.42;34.78;;;;;;;-0.18;62.19;93779.50;5111871;28;20023;-67
2024/01/17 09:34:32;;;;;;;50.35;34.40;;;;;;;-0.25;62.32;93765.06;5111671;28;20038;-67
2024/01/17 09:36:59;;;;;;;55.63;36.53;;;;;;;-0.01;61.12;93742.81;5111801;28;20028;-67
2024/01/17 09:39:25;;;;;;;49.70;32.45;;;;;;;0.71;59.48;93750.09;5093224;28;20069;-67
2024/01/17 09:41:51;;;;;;;56.47;37.38;;;;;;;1.18;57.84;93771.06;5112079;28;20488;-67
2024/01/17 09:44:17;;;;;;;65.80;37.67;;;;;;;0.88;57.79;93752.56;5111513;28;20035;-68
2024/01/17 09:46:45;;;;;;;60.00;39.80;;;;;;;1.04;58.95;93757.63;5111418;28;20037;-67
2024/01/17 09:49:10;;;;;;;56.53;38.20;;;;;;;0.91;58.19;93724.03;5111146;28;20053;-68
2024/01/17 09:51:36;;;;;;;63.78;38.70;;;;;;;0.90;59.12;93727.69;5110229;28;20035;-68
2024/01/17 09:54:05;;;;;;;68.95;37.03;;;;;;;1.06;58.04;93725.94;5111389;28;20042;-68
2024/01/17 09:56:32;;;;;;;58.35;36.28;;;;;;;1.25;57.80;93734.91;5111449;28;20031;-68
2024/01/17 09:59:02;;;;;;;50.85;35.20;;;;;;;1.36;57.34;93733.91;5111554;28;20036;-68
2024/01/17 10:01:30;;;;;;;54.35;34.97;;;;;;;1.62;56.06;93719.81;5111492;28;20035;-68
2024/01/17 10:03:57;;;;;;;56.85;35.15;;;;;;;1.88;55.74;93712.81;5111336;28;20071;-68
2024/01/17 10:06:24;;;;;;;55.83;37.58;;;;;;;1.42;56.27;93704.06;5093035;28;20025;-68
2024/01/17 10:08:50;;;;;;;49.10;33.97;;;;;;;1.39;56.38;93688.84;5111863;28;20031;-68
2024/01/17 10:11:16;;;;;;;53.67;36.70;;;;;;;1.60;56.72;93710.66;5093159;28;20032;-68
2024/01/17 10:13:41;;;;;;;57.45;38.50;;;;;;;1.41;56.76;93691.22;5111264;28;20031;-68
2024/01/17 10:16:08;;;;;;;64.45;40.22;;;;;;;1.78;56.77;93707.53;5111083;28;20036;-68
2024/01/17 10:18:34;;;;;;;58.72;38.40;;;;;;;1.86;56.62;93711.47;5110679;28;20019;-68
2024/01/17 10:20:59;;;;;;;52.97;35.20;;;;;;;1.65;55.95;93687.84;5111125;28;20139;-68
2024/01/17 10:23:26;;;;;;;56.25;34.55;;;;;;;1.82;55.28;93697.28;5110564;28;20035;-68
2024/01/17 10:25:52;;;;;;;48.42;32.55;;;;;;;1.64;55.57;93688.09;5110596;28;20055;-68
2024/01/17 10:28:17;;;;;;;51.13;34.83;;;;;;;1.97;54.94;93706.00;5111314;28;20020;-68
2024/01/17 10:30:42;;;;;;;53.35;36.50;;;;;;;2.23;55.26;93688.41;5110914;28;20555;-68
2024/01/17 10:33:08;;;;;;;57.63;38.30;;;;;;;2.26;54.01;93687.88;5111279;28;20020;-68
2024/01/17 10:35:34;;;;;;;67.13;44.80;;;;;;;1.94;54.67;93682.13;5092514;28;20088;-68
2024/01/17 10:38:00;;;;;;;66.40;43.08;;;;;;;2.08;54.19;93643.81;5110840;28;20504;-68
2024/01/17 10:40:26;;;;;;;66.38;44.13;;;;;;;2.64;53.24;93672.59;5110403;28;20039;-68
2024/01/17 10:43:12;;;;;;;63.85;45.65;;;;;;;2.59;53.02;93659.50;5110532;28;20518;-68
2024/01/17 10:45:43;;;;;;;74.18;46.35;;;;;;;2.83;52.74;93649.97;5110858;28;20032;-68
2024/01/17 10:48:10;;;;;;;70.30;47.35;;;;;;;2.16;54.11;93639.91;5093005;28;20072;-68
2024/01/17 10:50:35;;;;;;;65.55;43.90;;;;;;;2.43;54.01;93632.50;5110828;28;20031;-68
2024/01/17 10:53:08;;;;;;;72.72;47.53;;;;;;;2.80;54.32;93642.59;5110334;28;20031;-68
2024/01/17 10:55:35;;;;;;;73.68;45.75;;;;;;;2.88;53.09;93642.84;5110731;28;20032;-68
2024/01/17 10:58:07;;;;;;;63.60;38.60;;;;;;;2.31;52.92;93621.47;5110577;28;20028;-68
2024/01/17 11:00:35;;;;;;;63.40;39.75;;;;;;;2.57;52.75;93637.94;5092509;28;20119;-68
2024/01/17 11:03:08;;;;;;;66.28;41.50;;;;;;;2.96;52.16;93615.22;5112321;28;20384;-68
2024/01/17 11:05:43;;;;;;;69.22;41.45;;;;;;;2.73;52.72;93621.09;5114234;28;20028;-68
2024/01/17 11:08:10;;;;;;;63.17;40.42;;;;;;;2.77;53.05;93625.56;5114538;28;20030;-68
2024/01/17 11:10:36;;;;;;;63.42;40.60;;;;;;;2.98;52.01;93589.47;5114183;28;20510;-68
2024/01/17 11:13:03;;;;;;;55.15;38.35;;;;;;;3.26;51.85;93588.78;5114282;28;20027;-68